Time;durP1;ratioP1;P1;durP2;ratioP2;P2;SDS_P1;SDS_P2;PMS_P1;PMS_P2;Temp;Humidity;BMP_temperature;BMP_pressure;BME280_temperature;BME280_humidity;BME280_pressure;Samples;Min_cycle;Max_cycle;Signal;HPM_P1;HPM_P2
2022/08/30 00:03:06;;;;;;;5.68;1.35;;;;;;;;;;4807069;29;20034;-71
2022/08/30 00:05:32;;;;;;;8.40;1.38;;;;;;;;;;4807136;29;20027;-71
2022/08/30 00:07:59;;;;;;;4.82;1.55;;;;;;;;;;4807060;29;20041;-71
2022/08/30 00:10:27;;;;;;;6.75;1.30;;;;;;;;;;4806908;29;20035;-71
2022/08/30 00:12:54;;;;;;;2.65;1.30;;;;;;;;;;4806688;29;20034;-71
2022/08/30 00:15:20;;;;;;;3.88;1.42;;;;;;;;;;4807032;29;20037;-71
2022/08/30 00:17:47;;;;;;;10.15;1.65;;;;;;;;;;4806607;29;20050;-72
2022/08/30 00:20:18;;;;;;;2.95;1.67;;;;;;;;;;4806775;29;20392;-71
2022/08/30 00:22:44;;;;;;;2.92;1.58;;;;;;;;;;4806825;29;20047;-71
2022/08/30 00:25:11;;;;;;;2.63;1.20;;;;;;;;;;4806702;29;20037;-71
2022/08/30 00:27:37;;;;;;;2.60;1.60;;;;;;;;;;4806435;29;20039;-71
2022/08/30 00:30:04;;;;;;;1.98;1.38;;;;;;;;;;4806864;29;20043;-71
2022/08/30 00:32:31;;;;;;;6.43;1.50;;;;;;;;;;4806401;29;20033;-71
2022/08/30 00:34:57;;;;;;;6.07;1.90;;;;;;;;;;4806663;29;20043;-71
2022/08/30 00:37:24;;;;;;;1.50;1.15;;;;;;;;;;4806515;29;20035;-71
2022/08/30 00:39:50;;;;;;;4.70;1.70;;;;;;;;;;4805447;29;20400;-71
2022/08/30 00:42:17;;;;;;;2.83;1.58;;;;;;;;;;4806289;29;20025;-71
2022/08/30 00:44:44;;;;;;;2.67;1.48;;;;;;;;;;4806463;29;20039;-71
2022/08/30 00:47:10;;;;;;;4.63;1.40;;;;;;;;;;4806308;29;20057;-71
2022/08/30 00:49:38;;;;;;;4.57;1.70;;;;;;;;;;4806548;29;20033;-71
2022/08/30 00:52:06;;;;;;;3.40;1.45;;;;;;;;;;4806367;29;20033;-71
2022/08/30 00:54:33;;;;;;;2.40;1.58;;;;;;;;;;4806235;29;20511;-71
2022/08/30 00:56:59;;;;;;;4.22;1.40;;;;;;;;;;4805803;29;20046;-70
2022/08/30 00:59:27;;;;;;;3.92;1.50;;;;;;;;;;4806267;29;20023;-71
2022/08/30 01:01:54;;;;;;;3.03;1.40;;;;;;;;;;4806162;29;20522;-71
2022/08/30 01:04:22;;;;;;;3.67;1.20;;;;;;;;;;4806039;29;20039;-71
2022/08/30 01:06:48;;;;;;;4.72;1.80;;;;;;;;;;4806047;29;20026;-71
2022/08/30 01:09:14;;;;;;;4.45;1.55;;;;;;;;;;4806354;29;20027;-71
2022/08/30 01:11:42;;;;;;;3.25;1.60;;;;;;;;;;4805471;29;20026;-71
2022/08/30 01:14:10;;;;;;;4.68;1.42;;;;;;;;;;4805837;29;20041;-71
2022/08/30 01:16:37;;;;;;;2.22;1.42;;;;;;;;;;4805680;29;20031;-71
2022/08/30 01:19:05;;;;;;;5.78;1.80;;;;;;;;;;4805876;29;20031;-71
2022/08/30 01:21:35;;;;;;;4.45;1.83;;;;;;;;;;4805543;29;20512;-71
2022/08/30 01:24:01;;;;;;;3.25;1.38;;;;;;;;;;4805691;29;20057;-71
2022/08/30 01:26:29;;;;;;;3.60;1.90;;;;;;;;;;4804016;29;20065;-71
2022/08/30 01:28:58;;;;;;;3.35;1.60;;;;;;;;;;4805798;29;20027;-71
2022/08/30 01:31:24;;;;;;;7.45;1.65;;;;;;;;;;4805709;29;20037;-72
2022/08/30 01:33:50;;;;;;;4.63;1.83;;;;;;;;;;4805516;29;20037;-71
2022/08/30 01:36:18;;;;;;;4.22;1.70;;;;;;;;;;4805378;29;20404;-71
2022/08/30 01:38:48;;;;;;;7.60;1.80;;;;;;;;;;4805815;29;20037;-71
2022/08/30 01:41:17;;;;;;;3.42;1.52;;;;;;;;;;4805251;29;20518;-71
2022/08/30 01:43:44;;;;;;;3.45;1.65;;;;;;;;;;4805421;29;20039;-71
2022/08/30 01:46:11;;;;;;;3.22;1.80;;;;;;;;;;4819635;29;20090;-71
2022/08/30 01:48:38;;;;;;;3.15;1.67;;;;;;;;;;4805376;29;20041;-71
2022/08/30 01:51:05;;;;;;;8.88;2.03;;;;;;;;;;4805117;29;20385;-71
2022/08/30 01:53:32;;;;;;;7.00;2.10;;;;;;;;;;4804977;29;20421;-71
2022/08/30 01:55:58;;;;;;;2.08;1.58;;;;;;;;;;4805202;29;20041;-71
2022/08/30 01:58:25;;;;;;;6.78;1.92;;;;;;;;;;4805206;29;20039;-71
2022/08/30 02:00:51;;;;;;;4.97;2.20;;;;;;;;;;4805527;29;20019;-71
2022/08/30 02:03:18;;;;;;;5.13;2.08;;;;;;;;;;4805236;29;20446;-71
2022/08/30 02:05:44;;;;;;;3.35;1.73;;;;;;;;;;4804934;29;20057;-71
2022/08/30 02:08:11;;;;;;;3.75;1.73;;;;;;;;;;4804687;29;20027;-71
2022/08/30 02:10:37;;;;;;;14.52;2.03;;;;;;;;;;4805303;29;20019;-71
2022/08/30 02:13:03;;;;;;;4.30;1.85;;;;;;;;;;4803834;29;20049;-71
2022/08/30 02:15:30;;;;;;;5.70;2.20;;;;;;;;;;4804105;29;20033;-71
2022/08/30 02:17:56;;;;;;;4.93;2.00;;;;;;;;;;4804721;29;20061;-71
2022/08/30 02:20:22;;;;;;;8.70;1.80;;;;;;;;;;4804752;29;20031;-71
2022/08/30 02:22:49;;;;;;;3.90;1.88;;;;;;;;;;4804696;29;20035;-71
2022/08/30 02:25:16;;;;;;;7.40;1.70;;;;;;;;;;4804936;29;20080;-71
2022/08/30 02:27:42;;;;;;;3.88;1.80;;;;;;;;;;4805273;29;20035;-71
2022/08/30 02:30:09;;;;;;;8.98;2.13;;;;;;;;;;4804911;29;20083;-71
2022/08/30 02:32:35;;;;;;;5.47;2.10;;;;;;;;;;4804919;29;20041;-71
2022/08/30 02:35:02;;;;;;;7.80;2.20;;;;;;;;;;4804892;29;20400;-71
2022/08/30 02:37:28;;;;;;;7.88;2.22;;;;;;;;;;4818479;29;20393;-72
2022/08/30 02:39:54;;;;;;;5.28;2.22;;;;;;;;;;4804964;29;20033;-71
2022/08/30 02:42:21;;;;;;;6.70;2.00;;;;;;;;;;4805043;29;20038;-71
2022/08/30 02:44:47;;;;;;;3.97;1.88;;;;;;;;;;4804837;29;20278;-71
2022/08/30 02:47:13;;;;;;;3.95;1.80;;;;;;;;;;4804875;29;20049;-71
2022/08/30 02:49:40;;;;;;;3.47;1.90;;;;;;;;;;4804969;29;20031;-71
2022/08/30 02:52:06;;;;;;;4.85;1.73;;;;;;;;;;4804601;29;20031;-71
2022/08/30 02:54:32;;;;;;;3.97;1.90;;;;;;;;;;4804921;29;20031;-71
2022/08/30 02:57:03;;;;;;;3.30;2.15;;;;;;;;;;4804634;29;20523;-71
2022/08/30 02:59:30;;;;;;;6.28;2.10;;;;;;;;;;4805068;29;20059;-71
2022/08/30 03:01:56;;;;;;;5.68;2.00;;;;;;;;;;4804618;29;20397;-71
2022/08/30 03:04:23;;;;;;;5.57;1.77;;;;;;;;;;4807053;29;20039;-71
2022/08/30 03:06:49;;;;;;;5.68;2.00;;;;;;;;;;4807573;29;20033;-71
2022/08/30 03:09:16;;;;;;;3.58;2.17;;;;;;;;;;4807730;29;20031;-71
2022/08/30 03:11:42;;;;;;;2.13;1.88;;;;;;;;;;4807388;29;20445;-71
2022/08/30 03:14:08;;;;;;;4.15;2.10;;;;;;;;;;4807867;29;20034;-71
2022/08/30 03:16:35;;;;;;;4.20;2.22;;;;;;;;;;4807738;29;20058;-71
2022/08/30 03:19:01;;;;;;;6.35;2.00;;;;;;;;;;4807884;29;20038;-71
2022/08/30 03:21:28;;;;;;;5.75;2.00;;;;;;;;;;4807247;29;20680;-71
2022/08/30 03:23:54;;;;;;;10.93;2.72;;;;;;;;;;4807878;29;20496;-71
2022/08/30 03:26:20;;;;;;;4.97;1.95;;;;;;;;;;4807883;29;20033;-71
2022/08/30 03:28:46;;;;;;;3.20;2.08;;;;;;;;;;4807987;29;20041;-71
2022/08/30 03:31:13;;;;;;;3.70;1.75;;;;;;;;;;4807550;29;20404;-71
2022/08/30 03:33:39;;;;;;;9.48;2.00;;;;;;;;;;4807557;29;20037;-71
2022/08/30 03:36:06;;;;;;;3.85;1.90;;;;;;;;;;4807286;29;20438;-71
2022/08/30 03:38:32;;;;;;;7.45;2.33;;;;;;;;;;4807547;29;20447;-70
2022/08/30 03:40:59;;;;;;;7.65;1.98;;;;;;;;;;4807461;29;20404;-71
2022/08/30 03:43:25;;;;;;;4.38;2.30;;;;;;;;;;4807768;29;20033;-71
2022/08/30 03:45:52;;;;;;;5.63;2.28;;;;;;;;;;4807178;29;20061;-71
2022/08/30 03:48:18;;;;;;;10.80;2.10;;;;;;;;;;4807380;29;20038;-71
2022/08/30 03:50:44;;;;;;;10.80;2.38;;;;;;;;;;4807240;29;20038;-71
2022/08/30 03:53:10;;;;;;;12.07;2.50;;;;;;;;;;4807262;29;20495;-71
2022/08/30 03:55:37;;;;;;;4.13;1.90;;;;;;;;;;4807222;29;20039;-71
2022/08/30 03:58:03;;;;;;;5.72;2.20;;;;;;;;;;4807192;29;20039;-71
2022/08/30 04:00:29;;;;;;;10.60;2.20;;;;;;;;;;4807194;29;20497;-71
2022/08/30 04:02:56;;;;;;;3.72;2.08;;;;;;;;;;4807156;29;20031;-71
2022/08/30 04:05:22;;;;;;;4.22;1.95;;;;;;;;;;4807035;29;20029;-71
2022/08/30 04:07:48;;;;;;;7.60;2.53;;;;;;;;;;4806939;29;20037;-71
2022/08/30 04:10:15;;;;;;;6.90;2.50;;;;;;;;;;4820869;29;20505;-71
2022/08/30 04:12:41;;;;;;;4.80;2.25;;;;;;;;;;4807071;29;20396;-70
2022/08/30 04:15:09;;;;;;;6.20;2.50;;;;;;;;;;4806572;29;20039;-71
2022/08/30 04:17:35;;;;;;;9.57;2.33;;;;;;;;;;4806739;29;20051;-71
2022/08/30 04:20:02;;;;;;;7.40;2.63;;;;;;;;;;4806253;29;20183;-71
2022/08/30 04:22:28;;;;;;;7.82;2.20;;;;;;;;;;4806646;29;20041;-71
2022/08/30 04:24:54;;;;;;;3.95;1.92;;;;;;;;;;4807048;29;20035;-71
2022/08/30 04:27:21;;;;;;;3.95;2.40;;;;;;;;;;4806761;29;20027;-71
2022/08/30 04:29:48;;;;;;;6.88;2.33;;;;;;;;;;4806698;29;20531;-71
2022/08/30 04:32:15;;;;;;;7.93;2.40;;;;;;;;;;4806919;29;20031;-71
2022/08/30 04:34:42;;;;;;;5.10;2.63;;;;;;;;;;4806408;29;20030;-71
2022/08/30 04:37:08;;;;;;;7.88;2.47;;;;;;;;;;4806403;29;20043;-71
2022/08/30 04:39:35;;;;;;;11.93;2.50;;;;;;;;;;4806514;29;20034;-71
2022/08/30 04:42:02;;;;;;;7.53;3.40;;;;;;;;;;4806869;29;20095;-71
2022/08/30 04:44:28;;;;;;;10.70;2.72;;;;;;;;;;4806333;29;20041;-71
2022/08/30 04:46:55;;;;;;;12.50;2.58;;;;;;;;;;4806305;29;20034;-70
2022/08/30 04:49:21;;;;;;;7.75;2.53;;;;;;;;;;4806397;29;20027;-70
2022/08/30 04:51:48;;;;;;;13.48;2.78;;;;;;;;;;4806323;29;20497;-71
2022/08/30 04:54:14;;;;;;;11.73;2.50;;;;;;;;;;4806494;29;20030;-71
2022/08/30 04:56:40;;;;;;;7.07;2.65;;;;;;;;;;4806169;29;20038;-71
2022/08/30 04:59:07;;;;;;;9.52;2.45;;;;;;;;;;4806034;29;20079;-70
2022/08/30 05:01:33;;;;;;;4.55;2.25;;;;;;;;;;4805964;29;20404;-70
2022/08/30 05:03:59;;;;;;;4.40;2.60;;;;;;;;;;4805714;29;20037;-71
2022/08/30 05:06:27;;;;;;;5.55;3.05;;;;;;;;;;4806216;29;20021;-71
2022/08/30 05:08:54;;;;;;;5.65;2.65;;;;;;;;;;4804857;29;20031;-71
2022/08/30 05:11:21;;;;;;;8.55;2.42;;;;;;;;;;4806137;29;20369;-71
2022/08/30 05:13:48;;;;;;;9.70;2.67;;;;;;;;;;4805827;29;20026;-71
2022/08/30 05:16:16;;;;;;;12.75;2.95;;;;;;;;;;4805718;29;20039;-71
2022/08/30 05:18:49;;;;;;;3.38;2.40;;;;;;;;;;4805525;29;20466;-71
2022/08/30 05:21:20;;;;;;;7.88;2.72;;;;;;;;;;4805645;29;20026;-71
2022/08/30 05:23:46;;;;;;;11.55;4.38;;;;;;;;;;4805742;29;20396;-70
2022/08/30 05:26:15;;;;;;;5.88;2.53;;;;;;;;;;4805124;29;20071;-71
2022/08/30 05:28:41;;;;;;;7.07;3.00;;;;;;;;;;4804430;29;20407;-70
2022/08/30 05:31:15;;;;;;;6.75;2.72;;;;;;;;;;4805721;29;20035;-71
2022/08/30 05:33:42;;;;;;;6.82;2.85;;;;;;;;;;4805537;29;20026;-71
2022/08/30 05:36:10;;;;;;;5.68;2.70;;;;;;;;;;4805323;29;20031;-71
2022/08/30 05:38:36;;;;;;;3.63;2.85;;;;;;;;;;4805653;29;20031;-71
2022/08/30 05:41:03;;;;;;;8.80;2.75;;;;;;;;;;4805889;29;20023;-70
2022/08/30 05:43:29;;;;;;;4.43;2.38;;;;;;;;;;4805437;29;20431;-71
2022/08/30 05:45:59;;;;;;;8.90;2.70;;;;;;;;;;4805261;29;20047;-71
2022/08/30 05:48:26;;;;;;;8.70;3.20;;;;;;;;;;4805431;29;20037;-71
2022/08/30 05:51:00;;;;;;;9.13;4.45;;;;;;;;;;4805787;29;20041;-71
2022/08/30 05:53:27;;;;;;;10.32;4.07;;;;;;;;;;4805558;29;20033;-70
2022/08/30 05:55:53;;;;;;;11.77;3.90;;;;;;;;;;4805198;29;20027;-70
2022/08/30 05:58:19;;;;;;;15.07;2.67;;;;;;;;;;4805408;29;20042;-71
2022/08/30 06:00:46;;;;;;;8.32;2.60;;;;;;;;;;4805169;29;20106;-71
2022/08/30 06:03:12;;;;;;;6.78;2.90;;;;;;;;;;4804997;29;20038;-71
2022/08/30 06:05:38;;;;;;;6.55;3.10;;;;;;;;;;4803789;29;20033;-71
2022/08/30 06:08:04;;;;;;;8.75;3.10;;;;;;;;;;4805231;29;20059;-71
2022/08/30 06:10:31;;;;;;;10.43;2.80;;;;;;;;;;4805341;29;20045;-71
2022/08/30 06:12:57;;;;;;;8.63;3.10;;;;;;;;;;4802429;29;20489;-70
2022/08/30 06:15:24;;;;;;;9.48;2.30;;;;;;;;;;4802854;29;20076;-67
2022/08/30 06:17:50;;;;;;;9.55;2.88;;;;;;;;;;4804127;29;20055;-66
2022/08/30 06:20:20;;;;;;;7.07;2.47;;;;;;;;;;4804571;29;20030;-66
2022/08/30 06:22:46;;;;;;;9.40;2.80;;;;;;;;;;4804709;29;20030;-66
2022/08/30 06:25:15;;;;;;;10.55;2.40;;;;;;;;;;4804493;29;20095;-66
2022/08/30 06:27:41;;;;;;;6.40;2.70;;;;;;;;;;4804496;29;20035;-66
2022/08/30 06:30:09;;;;;;;5.97;2.72;;;;;;;;;;4804756;29;20037;-66
2022/08/30 06:32:39;;;;;;;7.70;2.80;;;;;;;;;;4804566;29;20383;-66
2022/08/30 06:35:06;;;;;;;10.90;2.63;;;;;;;;;;4801481;29;20041;-66
2022/08/30 06:37:33;;;;;;;8.27;2.83;;;;;;;;;;4804923;29;20043;-66
2022/08/30 06:40:00;;;;;;;13.10;4.43;;;;;;;;;;4808332;29;20027;-66
2022/08/30 06:42:30;;;;;;;12.27;3.08;;;;;;;;;;4805134;29;20198;-66
2022/08/30 06:45:00;;;;;;;7.03;2.65;;;;;;;;;;4803685;29;20037;-66
2022/08/30 06:47:27;;;;;;;8.32;2.75;;;;;;;;;;4801621;29;20037;-66
2022/08/30 06:49:54;;;;;;;11.90;3.75;;;;;;;;;;4807879;29;20038;-66
2022/08/30 06:52:20;;;;;;;8.93;2.83;;;;;;;;;;4780457;29;20101;-67
2022/08/30 06:54:46;;;;;;;4.75;2.50;;;;;;;;;;4749925;30;20468;-66
2022/08/30 06:57:13;;;;;;;9.52;2.83;;;;;;;;;;4752557;30;20051;-66
2022/08/30 06:59:39;;;;;;;10.02;2.97;;;;;;;;;;4747018;30;20032;-66
2022/08/30 07:02:06;;;;;;;5.53;3.05;;;;;;;;;;4743503;30;20036;-66
2022/08/30 07:04:33;;;;;;;5.78;3.08;;;;;;;;;;4747509;30;20025;-66
2022/08/30 07:06:59;;;;;;;5.55;2.88;;;;;;;;;;4743953;30;20032;-66
2022/08/30 07:09:26;;;;;;;6.28;2.38;;;;;;;;;;4743758;30;20509;-65
2022/08/30 07:11:53;;;;;;;8.65;2.70;;;;;;;;;;4743268;30;20052;-64
2022/08/30 07:14:20;;;;;;;6.05;2.58;;;;;;;;;;4744714;30;20424;-64
2022/08/30 07:16:46;;;;;;;5.90;2.63;;;;;;;;;;4746312;30;20052;-67
2022/08/30 07:19:13;;;;;;;8.40;2.95;;;;;;;;;;4741738;30;20051;-67
2022/08/30 07:21:44;;;;;;;8.20;3.03;;;;;;;;;;4758664;30;20032;-65
2022/08/30 07:24:12;;;;;;;6.90;2.60;;;;;;;;;;4748708;30;20426;-65
2022/08/30 07:26:40;;;;;;;9.30;2.55;;;;;;;;;;4744246;30;20036;-66
2022/08/30 07:29:07;;;;;;;11.70;2.90;;;;;;;;;;4752640;30;20051;-65
2022/08/30 07:31:34;;;;;;;11.65;3.35;;;;;;;;;;4745818;30;20475;-67
2022/08/30 07:34:05;;;;;;;10.10;2.88;;;;;;;;;;4736245;30;20910;-66
2022/08/30 07:36:31;;;;;;;;;;;;;;;;;;4734078;30;20036;-65
2022/08/30 07:38:58;;;;;;;3.67;2.28;;;;;;;;;;4735137;30;19928;-64
2022/08/30 07:41:26;;;;;;;10.32;2.45;;;;;;;;;;4733177;30;20032;-66
2022/08/30 07:43:52;;;;;;;11.32;3.22;;;;;;;;;;4734828;30;20036;-67
2022/08/30 07:46:19;;;;;;;5.10;2.60;;;;;;;;;;4734117;30;20038;-66
2022/08/30 07:48:46;;;;;;;9.15;2.50;;;;;;;;;;4735021;30;20033;-65
2022/08/30 07:51:13;;;;;;;8.50;2.45;;;;;;;;;;4746483;30;20036;-66
2022/08/30 07:53:40;;;;;;;4.88;2.90;;;;;;;;;;4744604;30;20048;-67
2022/08/30 07:56:06;;;;;;;7.15;2.22;;;;;;;;;;4752135;30;20031;-65
2022/08/30 07:58:33;;;;;;;4.65;2.47;;;;;;;;;;4751177;30;20038;-65
2022/08/30 08:01:00;;;;;;;5.43;2.38;;;;;;;;;;4752316;30;20020;-65
2022/08/30 08:03:27;;;;;;;5.15;2.65;;;;;;;;;;4752464;30;20418;-66
2022/08/30 08:05:54;;;;;;;5.45;2.30;;;;;;;;;;4751803;30;20033;-67
2022/08/30 08:08:20;;;;;;;7.72;2.83;;;;;;;;;;4749718;30;20025;-66
2022/08/30 08:10:47;;;;;;;6.95;2.58;;;;;;;;;;4750920;30;20059;-65
2022/08/30 08:13:13;;;;;;;4.90;2.50;;;;;;;;;;4755258;30;20054;-65
2022/08/30 08:15:41;;;;;;;6.68;2.67;;;;;;;;;;4752324;30;20036;-66
2022/08/30 08:18:07;;;;;;;4.95;2.35;;;;;;;;;;4742602;30;20059;-66
2022/08/30 08:20:34;;;;;;;4.78;2.40;;;;;;;;;;4747867;30;20028;-66
2022/08/30 08:23:01;;;;;;;11.35;2.63;;;;;;;;;;4744184;30;20047;-66
2022/08/30 08:25:27;;;;;;;4.68;2.53;;;;;;;;;;4750277;30;20494;-66
2022/08/30 08:27:54;;;;;;;9.77;2.85;;;;;;;;;;4735131;30;20037;-66
2022/08/30 08:30:21;;;;;;;7.07;2.20;;;;;;;;;;4749716;30;20051;-66
2022/08/30 08:32:48;;;;;;;4.85;2.20;;;;;;;;;;4751565;30;20039;-67
2022/08/30 08:35:14;;;;;;;6.60;2.78;;;;;;;;;;4749367;30;20078;-66
2022/08/30 08:37:41;;;;;;;11.00;2.95;;;;;;;;;;4741437;30;20059;-66
2022/08/30 08:40:08;;;;;;;10.45;2.70;;;;;;;;;;4734414;30;20028;-66
2022/08/30 08:42:43;;;;;;;9.18;2.78;;;;;;;;;;4734038;30;20070;-66
2022/08/30 08:45:14;;;;;;;5.07;2.45;;;;;;;;;;4760277;30;20570;-66
2022/08/30 08:47:52;;;;;;;7.88;2.33;;;;;;;;;;4733739;30;20495;-71
2022/08/30 08:50:20;;;;;;;7.20;3.15;;;;;;;;;;4747487;30;20045;-72
2022/08/30 08:55:34;;;;;;;10.70;2.60;;;;;;;;;;4751585;30;20036;-72
2022/08/30 08:58:01;;;;;;;6.05;2.58;;;;;;;;;;4745586;30;20045;-72
2022/08/30 09:00:28;;;;;;;11.05;2.47;;;;;;;;;;4740674;30;20041;-72
2022/08/30 09:02:59;;;;;;;4.20;2.20;;;;;;;;;;4736837;30;20035;-72
2022/08/30 09:05:28;;;;;;;5.40;2.45;;;;;;;;;;4745927;30;20035;-72
2022/08/30 09:08:01;;;;;;;7.50;2.25;;;;;;;;;;4757360;30;20020;-72
2022/08/30 09:10:29;;;;;;;6.75;2.15;;;;;;;;;;4754820;30;20510;-72
2022/08/30 09:12:56;;;;;;;4.85;2.28;;;;;;;;;;4754012;30;20029;-72
2022/08/30 09:15:24;;;;;;;5.05;2.25;;;;;;;;;;4772043;30;20036;-72
2022/08/30 09:17:53;;;;;;;4.05;2.58;;;;;;;;;;4759038;30;20058;-72
2022/08/30 09:20:27;;;;;;;5.00;2.28;;;;;;;;;;4756343;30;20042;-72
2022/08/30 09:22:54;;;;;;;2.85;2.03;;;;;;;;;;4758614;30;20038;-71
2022/08/30 09:25:22;;;;;;;11.38;2.20;;;;;;;;;;4751225;30;20061;-72
2022/08/30 09:27:49;;;;;;;6.28;2.35;;;;;;;;;;4750554;30;20066;-72
2022/08/30 09:30:16;;;;;;;6.45;2.10;;;;;;;;;;4743025;30;20040;-71
2022/08/30 09:32:44;;;;;;;9.27;2.40;;;;;;;;;;4743090;30;20524;-72
2022/08/30 09:35:12;;;;;;;4.00;2.00;;;;;;;;;;4761814;30;20028;-72
2022/08/30 09:37:51;;;;;;;4.13;1.95;;;;;;;;;;4763772;30;20201;-72
2022/08/30 09:40:26;;;;;;;5.72;2.03;;;;;;;;;;4741793;30;20028;-73
2022/08/30 09:43:06;;;;;;;5.80;2.10;;;;;;;;;;4756913;30;20036;-73
2022/08/30 09:45:33;;;;;;;;;;;;;;;;;;4756731;30;20028;-72
2022/08/30 09:48:00;;;;;;;6.80;2.55;;;;;;;;;;4759929;30;19905;-72
2022/08/30 09:50:29;;;;;;;6.30;2.90;;;;;;;;;;4772015;30;20039;-72
2022/08/30 09:52:58;;;;;;;5.60;2.58;;;;;;;;;;4763437;30;20042;-72
2022/08/30 09:55:30;;;;;;;3.67;2.10;;;;;;;;;;4771235;30;20032;-72
2022/08/30 09:58:04;;;;;;;4.43;2.22;;;;;;;;;;4739841;30;20214;-72
2022/08/30 10:00:34;;;;;;;4.53;2.20;;;;;;;;;;4752591;30;20040;-73
2022/08/30 10:03:14;;;;;;;4.88;2.47;;;;;;;;;;4749277;30;20039;-72
2022/08/30 10:05:41;;;;;;;;;;;;;;;;;;4750404;30;20091;-72
2022/08/30 10:08:07;;;;;;;5.30;2.28;;;;;;;;;;4749968;30;19916;-73
2022/08/30 10:10:54;;;;;;;7.38;1.90;;;;;;;;;;4750355;30;20051;-73
2022/08/30 10:13:39;;;;;;;5.97;2.33;;;;;;;;;;4750150;30;20032;-72
2022/08/30 10:16:13;;;;;;;4.60;2.40;;;;;;;;;;4750541;30;20159;-71
2022/08/30 10:18:58;;;;;;;6.80;2.25;;;;;;;;;;4750274;30;20066;-72
2022/08/30 10:21:33;;;;;;;5.57;2.10;;;;;;;;;;4754207;30;20416;-72
2022/08/30 10:24:07;;;;;;;7.63;2.05;;;;;;;;;;4759679;30;20030;-72
2022/08/30 10:26:36;;;;;;;4.15;2.10;;;;;;;;;;4742303;30;20403;-72
2022/08/30 10:29:09;;;;;;;7.45;1.88;;;;;;;;;;4746142;30;20043;-72
2022/08/30 10:31:41;;;;;;;7.15;2.30;;;;;;;;;;4755179;30;20046;-72
2022/08/30 10:34:38;;;;;;;4.55;1.98;;;;;;;;;;4752583;30;20048;-72
2022/08/30 10:37:09;;;;;;;4.13;1.70;;;;;;;;;;4748980;30;20517;-72
2022/08/30 10:39:39;;;;;;;7.57;2.10;;;;;;;;;;4750519;30;20043;-72
2022/08/30 10:42:08;;;;;;;9.20;2.03;;;;;;;;;;4750355;30;20032;-72
2022/08/30 10:44:37;;;;;;;4.55;1.80;;;;;;;;;;4750617;30;20020;-72
2022/08/30 10:47:09;;;;;;;4.40;2.00;;;;;;;;;;4750456;30;20039;-72
2022/08/30 10:49:41;;;;;;;2.25;1.73;;;;;;;;;;4750237;30;20040;-72
2022/08/30 10:52:19;;;;;;;5.35;1.90;;;;;;;;;;4750115;30;20036;-72
2022/08/30 10:54:49;;;;;;;7.28;2.22;;;;;;;;;;4749937;30;20040;-72
2022/08/30 10:57:16;;;;;;;4.10;1.90;;;;;;;;;;4750048;30;20048;-72
2022/08/30 10:59:44;;;;;;;5.68;1.80;;;;;;;;;;4749950;30;20046;-72
2022/08/30 11:02:16;;;;;;;6.60;1.85;;;;;;;;;;4750093;30;20028;-72
2022/08/30 11:05:01;;;;;;;7.25;2.15;;;;;;;;;;4749454;30;20028;-72
2022/08/30 11:07:34;;;;;;;2.55;1.70;;;;;;;;;;4745661;30;20037;-72
2022/08/30 11:10:08;;;;;;;2.97;1.80;;;;;;;;;;4732542;30;20021;-72
2022/08/30 11:12:35;;;;;;;5.47;1.80;;;;;;;;;;4732394;30;20445;-72
2022/08/30 11:15:13;;;;;;;6.20;2.00;;;;;;;;;;4732600;30;20025;-72
2022/08/30 11:17:58;;;;;;;2.00;1.48;;;;;;;;;;4732283;30;20052;-72
2022/08/30 11:20:38;;;;;;;4.57;1.90;;;;;;;;;;4731884;30;20037;-72
2022/08/30 11:23:04;;;;;;;;;;;;;;;;;;4731648;30;20028;-72
2022/08/30 11:25:48;;;;;;;4.15;1.80;;;;;;;;;;4734663;30;19910;-72
2022/08/30 11:28:34;;;;;;;2.83;1.75;;;;;;;;;;4735707;30;20033;-72
2022/08/30 11:31:04;;;;;;;4.38;1.70;;;;;;;;;;4735624;30;20086;-72
2022/08/30 11:33:40;;;;;;;11.13;1.77;;;;;;;;;;4735019;30;20035;-72
2022/08/30 11:36:06;;;;;;;2.58;1.63;;;;;;;;;;4735407;30;20043;-72
2022/08/30 11:38:32;;;;;;;4.07;1.70;;;;;;;;;;4744722;30;20040;-72
2022/08/30 11:40:58;;;;;;;7.47;1.60;;;;;;;;;;4745732;30;20043;-72
2022/08/30 11:43:34;;;;;;;3.78;1.92;;;;;;;;;;4752737;30;20029;-72
2022/08/30 11:46:14;;;;;;;9.23;1.80;;;;;;;;;;4752730;30;20408;-72
2022/08/30 11:48:43;;;;;;;8.52;1.55;;;;;;;;;;4752679;30;20040;-72
2022/08/30 11:51:33;;;;;;;4.28;1.60;;;;;;;;;;4752476;30;20042;-72
2022/08/30 11:54:25;;;;;;;5.00;1.88;;;;;;;;;;4753439;30;20418;-72
2022/08/30 11:57:03;;;;;;;5.30;2.10;;;;;;;;;;4767721;30;20585;-72
2022/08/30 11:59:37;;;;;;;3.45;1.80;;;;;;;;;;4766669;30;20035;-72
2022/08/30 12:02:04;;;;;;;6.70;1.80;;;;;;;;;;4744343;30;20052;-72
2022/08/30 12:04:36;;;;;;;8.57;2.13;;;;;;;;;;4749035;30;20385;-72
2022/08/30 12:07:06;;;;;;;9.52;1.80;;;;;;;;;;4749892;30;20391;-72
2022/08/30 12:09:33;;;;;;;9.07;2.00;;;;;;;;;;4753135;30;20024;-72
2022/08/30 12:12:06;;;;;;;4.28;1.90;;;;;;;;;;4756704;30;20601;-72
2022/08/30 12:14:38;;;;;;;3.33;1.65;;;;;;;;;;4753194;30;20048;-72
2022/08/30 12:20:17;;;;;;;2.60;1.70;;;;;;;;;;4749545;30;20037;-72
2022/08/30 12:22:44;;;;;;;2.83;1.60;;;;;;;;;;4749547;30;20032;-72
2022/08/30 12:25:30;;;;;;;4.35;1.67;;;;;;;;;;4750357;30;20039;-72
2022/08/30 12:28:15;;;;;;;3.90;1.73;;;;;;;;;;4752582;30;20048;-72
2022/08/30 12:30:42;;;;;;;4.43;1.63;;;;;;;;;;4751806;30;20032;-72
2022/08/30 12:33:13;;;;;;;3.90;1.70;;;;;;;;;;4759978;30;20051;-72
2022/08/30 12:35:40;;;;;;;3.58;1.60;;;;;;;;;;4751632;30;20024;-72
2022/08/30 12:38:13;;;;;;;4.18;1.52;;;;;;;;;;4751387;30;20047;-72
2022/08/30 12:40:48;;;;;;;3.70;1.35;;;;;;;;;;4748040;30;20027;-72
2022/08/30 12:43:44;;;;;;;2.38;1.42;;;;;;;;;;4741643;30;20024;-72
2022/08/30 12:46:12;;;;;;;2.95;1.30;;;;;;;;;;4745154;30;20429;-72
2022/08/30 12:48:39;;;;;;;3.40;1.58;;;;;;;;;;4743789;30;20024;-73
2022/08/30 12:51:09;;;;;;;4.90;1.38;;;;;;;;;;4752041;30;20050;-73
2022/08/30 12:53:39;;;;;;;4.63;1.20;;;;;;;;;;4751023;30;20032;-73
2022/08/30 12:56:08;;;;;;;7.17;1.50;;;;;;;;;;4739650;30;20041;-73
2022/08/30 12:58:34;;;;;;;3.55;1.60;;;;;;;;;;4742072;30;20032;-73
2022/08/30 13:01:11;;;;;;;4.70;1.33;;;;;;;;;;4751508;30;20440;-73
2022/08/30 13:03:38;;;;;;;5.15;1.27;;;;;;;;;;4754848;30;20027;-73
2022/08/30 13:06:06;;;;;;;3.30;1.40;;;;;;;;;;4761645;30;20023;-73
2022/08/30 13:08:43;;;;;;;4.20;1.60;;;;;;;;;;4753685;30;20016;-73
2022/08/30 13:11:11;;;;;;;2.72;1.52;;;;;;;;;;4771235;30;20063;-72
2022/08/30 13:13:42;;;;;;;5.32;1.50;;;;;;;;;;4758641;30;20026;-73
2022/08/30 13:16:19;;;;;;;6.95;1.58;;;;;;;;;;4760818;30;20027;-72
2022/08/30 13:18:46;;;;;;;5.18;1.45;;;;;;;;;;4759672;30;20048;-72
2022/08/30 13:21:29;;;;;;;5.18;1.35;;;;;;;;;;4759145;30;20042;-72
2022/08/30 13:23:57;;;;;;;6.07;1.48;;;;;;;;;;4736457;30;20506;-72
2022/08/30 13:26:23;;;;;;;4.35;1.45;;;;;;;;;;4741699;30;20414;-72
2022/08/30 13:28:54;;;;;;;5.53;1.30;;;;;;;;;;4751583;30;20043;-72
2022/08/30 13:31:21;;;;;;;4.68;1.33;;;;;;;;;;4742641;30;20032;-70
2022/08/30 13:33:51;;;;;;;7.57;1.60;;;;;;;;;;4759124;30;20024;-72
2022/08/30 13:36:18;;;;;;;8.07;1.65;;;;;;;;;;4769277;30;20411;-71
2022/08/30 13:38:45;;;;;;;7.53;1.52;;;;;;;;;;4750231;30;20470;-71
2022/08/30 13:41:11;;;;;;;5.63;1.42;;;;;;;;;;4751658;30;20043;-71
2022/08/30 13:43:37;;;;;;;5.47;1.40;;;;;;;;;;4750005;30;20029;-71
2022/08/30 13:46:04;;;;;;;2.03;1.30;;;;;;;;;;4741185;30;20037;-69
2022/08/30 13:48:31;;;;;;;4.47;1.40;;;;;;;;;;4751199;30;20032;-68
2022/08/30 13:50:57;;;;;;;9.85;1.63;;;;;;;;;;4751712;30;20038;-66
2022/08/30 13:53:24;;;;;;;3.90;1.52;;;;;;;;;;4754422;30;20036;-68
2022/08/30 13:55:50;;;;;;;6.00;1.50;;;;;;;;;;4760264;30;20040;-67
2022/08/30 13:58:17;;;;;;;5.75;1.50;;;;;;;;;;4757213;30;20040;-67
2022/08/30 14:00:47;;;;;;;7.50;1.52;;;;;;;;;;4761398;30;20040;-68
2022/08/30 14:03:13;;;;;;;5.40;1.40;;;;;;;;;;4753500;30;20036;-68
2022/08/30 14:05:40;;;;;;;7.22;1.70;;;;;;;;;;4756402;30;20054;-69
2022/08/30 14:08:10;;;;;;;7.10;1.67;;;;;;;;;;4758461;30;20034;-68
2022/08/30 14:10:36;;;;;;;8.50;1.35;;;;;;;;;;4758254;30;20354;-70
2022/08/30 14:13:04;;;;;;;9.65;1.58;;;;;;;;;;4758090;30;20444;-70
2022/08/30 14:15:31;;;;;;;4.00;1.42;;;;;;;;;;4758326;30;20410;-70
2022/08/30 14:17:57;;;;;;;6.68;1.30;;;;;;;;;;4772838;30;20050;-69
2022/08/30 14:20:24;;;;;;;5.55;1.90;;;;;;;;;;4755986;30;20034;-69
2022/08/30 14:22:50;;;;;;;5.18;1.73;;;;;;;;;;4773691;30;20036;-68
2022/08/30 14:25:16;;;;;;;6.47;1.63;;;;;;;;;;4759848;30;20393;-69
2022/08/30 14:27:43;;;;;;;5.03;1.50;;;;;;;;;;4758018;30;20498;-69
2022/08/30 14:30:09;;;;;;;7.20;1.70;;;;;;;;;;4760070;30;20443;-68
2022/08/30 14:32:36;;;;;;;4.03;1.60;;;;;;;;;;4757477;30;20040;-68
2022/08/30 14:35:02;;;;;;;7.35;1.35;;;;;;;;;;4758448;30;20497;-68
2022/08/30 14:37:28;;;;;;;6.40;1.40;;;;;;;;;;4759122;30;20034;-68
2022/08/30 14:39:55;;;;;;;4.25;1.63;;;;;;;;;;4758438;30;20036;-68
2022/08/30 14:42:21;;;;;;;7.07;1.88;;;;;;;;;;4756364;30;20031;-66
2022/08/30 14:44:47;;;;;;;5.97;1.92;;;;;;;;;;4760302;30;20494;-71
2022/08/30 14:47:14;;;;;;;10.35;1.80;;;;;;;;;;4759098;30;20368;-68
2022/08/30 14:49:40;;;;;;;4.97;1.52;;;;;;;;;;4759921;30;20029;-68
2022/08/30 14:52:07;;;;;;;7.20;2.20;;;;;;;;;;4756993;30;20024;-69
2022/08/30 14:54:34;;;;;;;6.35;1.33;;;;;;;;;;4755051;30;20036;-68
2022/08/30 14:57:00;;;;;;;8.48;1.63;;;;;;;;;;4753132;30;20050;-70
2022/08/30 14:59:27;;;;;;;3.47;1.70;;;;;;;;;;4744830;30;20059;-70